FAKMFAUP

Guest
Details From FAKM - Kimberley
To FAUP - Upington
Flight Number -
Tags generated
Created
Modified
Stats Distance 186 nm / 345 km
Max Altitude 7,100 ft / 2,164 m
Waypoints 4
Social Downloads 0
Likes 0
Share VATSIM

Download

Looking for another format? Having issues loading an existing format? Contact us
Advertisement - Login to hide

Notes

Basic altitude profile: - Ascent Rate: 2500ft/min - Ascent Speed: 250kts - Cruise Altitude: 9000ft - Cruise Speed: 420kts - Descent Rate: 1500ft/min - Descent Speed: 250kts Options: - Use NATs: yes - Use PACOTS: yes - Use low airways: yes - Use high airways: no

Route

FAKM KYV W97F UPV FAUP

ID Type Via Altitude Latitude Longitude Leg Dist Tot Dist Heading (true) Name
O FAKM APT - 0 ft / 0 m -28.80475˚ 24.76400˚ - 0 nm - Kimberley
KYV VOR - 100 ft / 30 m -28.79995˚ 24.76037˚ 0 nm 0 nm 326° / 326° KIMBERLEY VOR-DME
UPV VOR W97F (AWY-LO) 7,100 ft / 2,164 m -28.40170˚ 21.26037˚ 186 nm 186 nm 277° / 278° UPINGTON VOR-DME
O FAUP APT - 0 ft / 0 m -28.40167˚ 21.26119˚ 0 nm 186 nm 88° / 88° Upington

Altitude Profile

Advertisement - Login to hide

Weather


0- 5 10 15 20 25 30 35+ Temperature / ° C

Clouds and Precipitation
Forecast for 2017-12-18 18:00 UTC. Updated 2 hours ago

Ground ~20,000 ft ~40,000 ft Winds

FAKM

Details ICAO FAKM (KIM)
Name Kimberley
Region South Africa
Timezone Africa/Johannesburg (UTC+2.0)
Stats Elevation 3,950 ft / 1,204 m (AMSL)
Location -28.804751° 24.763997°
Runways 2
Magnetic Variation 21.457° W

METAR

FAKM 181433Z 06006KT 9999 FEW060CB SCT080 27/18 Q1012

Decode

TAF

Not found

Departure Runways

ID Width Length Bearing (true) Bearing (mag) Surface Threshold Offset Overrun Length
02 150 ft / 46 m 9,851 ft / 3,003 m 0.00° 21.46° Asphalt 0 ft / 0 m 0 ft / 0 m
10 148 ft / 45 m 8,010 ft / 2,441 m 80.28° 101.74° Asphalt 0 ft / 0 m 0 ft / 0 m
20 150 ft / 46 m 9,851 ft / 3,003 m 180.00° 201.46° Asphalt 0 ft / 0 m 0 ft / 0 m
28 148 ft / 45 m 8,010 ft / 2,441 m 260.26° 281.72° Asphalt 0 ft / 0 m 0 ft / 0 m

FAUP

Details ICAO FAUP (UTN)
Name Upington
Region South Africa
Timezone Africa/Johannesburg (UTC+2.0)
Stats Elevation 2,791 ft / 851 m (AMSL)
Location -28.401673° 21.261191°
Runways 3
Magnetic Variation 19.780° W

METAR

FAUP 181400Z 23006KT 9999 FEW050 32/M02 Q1012 NOSIG

Decode

TAF

Not found

Destination Runways

ID Width Length Bearing (true) Bearing (mag) Surface Threshold Offset Overrun Length
01 150 ft / 46 m 8,008 ft / 2,441 m 349.62° 9.40° Asphalt 0 ft / 0 m 0 ft / 0 m
08 98 ft / 30 m 2,739 ft / 835 m 59.59° 79.37° Asphalt 0 ft / 0 m 0 ft / 0 m
17 197 ft / 60 m 16,091 ft / 4,905 m 153.53° 173.31° Asphalt 0 ft / 0 m 1,181 ft / 360 m
19 150 ft / 46 m 8,008 ft / 2,441 m 169.62° 189.40° Asphalt 0 ft / 0 m 0 ft / 0 m
26 98 ft / 30 m 2,739 ft / 835 m 239.59° 259.37° Asphalt 0 ft / 0 m 0 ft / 0 m
35 197 ft / 60 m 16,091 ft / 4,905 m 333.51° 353.29° Asphalt 0 ft / 0 m 1,180 ft / 360 m

Popular Alternatives